Terminal Aerodrome Forecast
Issued by NWS Paducah, KY

Home | Current Version | Previous Version | Text Only | Print | Product List | Glossary On
Versions: 1 2 3 4 5 6 7 8 9 10 11 12 13 14 15 16 17 18 19 20 21 22 23 24
840
FTUS43 KPAH 202330
TAFEVV
TAF
KEVV 202330Z 2100/2124 24008KT 6SM -RA SCT025 OVC050
      TEMPO 2101/2105 4SM -RA BR OVC025
     FM210500 25006KT P6SM SCT030 OVC060
     FM211200 30008KT P6SM BKN015
     FM211500 32013KT P6SM BKN030=

USA.gov is the U.S. government's official web portal to all federal, state and local government web resources and services.